sensor_id;sensor_type;location;lat;lon;timestamp;P1;P2;P0
69144;PMS7003;56251;50.324;17.574;2024-03-02T00:01:54;73;65;37
69144;PMS7003;56251;50.324;17.574;2024-03-02T00:02:18;81;66;39
69144;PMS7003;56251;50.324;17.574;2024-03-02T00:05:00;76;67;36
69144;PMS7003;56251;50.324;17.574;2024-03-02T00:05:24;76;67;36
69144;PMS7003;56251;50.324;17.574;2024-03-02T00:08:07;77;67;38
69144;PMS7003;56251;50.324;17.574;2024-03-02T00:08:31;77;67;38
69144;PMS7003;56251;50.324;17.574;2024-03-02T00:11:13;62;51;34
69144;PMS7003;56251;50.324;17.574;2024-03-02T00:11:37;62;51;34
69144;PMS7003;56251;50.324;17.574;2024-03-02T00:14:29;77;62;34
69144;PMS7003;56251;50.324;17.574;2024-03-02T00:14:44;77;62;34
69144;PMS7003;56251;50.324;17.574;2024-03-02T00:17:34;76;66;35
69144;PMS7003;56251;50.324;17.574;2024-03-02T00:17:53;94;79;47
69144;PMS7003;56251;50.324;17.574;2024-03-02T00:20:41;79;68;36
69144;PMS7003;56251;50.324;17.574;2024-03-02T00:21:06;77;68;36
69144;PMS7003;56251;50.324;17.574;2024-03-02T00:23:48;74;68;40
69144;PMS7003;56251;50.324;17.574;2024-03-02T00:24:21;74;68;40
69144;PMS7003;56251;50.324;17.574;2024-03-02T00:26:56;67;54;32
69144;PMS7003;56251;50.324;17.574;2024-03-02T00:27:28;67;54;32
69144;PMS7003;56251;50.324;17.574;2024-03-02T00:30:41;77;66;38
69144;PMS7003;56251;50.324;17.574;2024-03-02T00:33:25;74;54;33
69144;PMS7003;56251;50.324;17.574;2024-03-02T00:33:49;74;54;33
69144;PMS7003;56251;50.324;17.574;2024-03-02T00:36:34;79;69;33
69144;PMS7003;56251;50.324;17.574;2024-03-02T00:36:57;81;70;36
69144;PMS7003;56251;50.324;17.574;2024-03-02T00:39:41;76;62;36
69144;PMS7003;56251;50.324;17.574;2024-03-02T00:40:06;69;57;37
69144;PMS7003;56251;50.324;17.574;2024-03-02T00:42:48;84;56;34
69144;PMS7003;56251;50.324;17.574;2024-03-02T00:45:54;74;68;37
69144;PMS7003;56251;50.324;17.574;2024-03-02T00:46:45;72;57;35
69144;PMS7003;56251;50.324;17.574;2024-03-02T00:49:01;71;56;32
69144;PMS7003;56251;50.324;17.574;2024-03-02T00:49:53;97;72;42
69144;PMS7003;56251;50.324;17.574;2024-03-02T00:52:11;78;58;35
69144;PMS7003;56251;50.324;17.574;2024-03-02T00:52:59;78;72;38
69144;PMS7003;56251;50.324;17.574;2024-03-02T00:55:18;79;68;40
69144;PMS7003;56251;50.324;17.574;2024-03-02T00:56:08;73;59;35
69144;PMS7003;56251;50.324;17.574;2024-03-02T00:58:25;78;60;36
69144;PMS7003;56251;50.324;17.574;2024-03-02T00:59:21;73;66;36
69144;PMS7003;56251;50.324;17.574;2024-03-02T01:01:33;74;59;33
69144;PMS7003;56251;50.324;17.574;2024-03-02T01:02:28;74;59;33
69144;PMS7003;56251;50.324;17.574;2024-03-02T01:04:39;75;70;36
69144;PMS7003;56251;50.324;17.574;2024-03-02T01:05:35;76;59;35
69144;PMS7003;56251;50.324;17.574;2024-03-02T01:07:46;74;63;37
69144;PMS7003;56251;50.324;17.574;2024-03-02T01:08:41;72;58;33
69144;PMS7003;56251;50.324;17.574;2024-03-02T01:10:53;71;59;35
69144;PMS7003;56251;50.324;17.574;2024-03-02T01:11:47;75;59;35
69144;PMS7003;56251;50.324;17.574;2024-03-02T01:14:00;70;56;35
69144;PMS7003;56251;50.324;17.574;2024-03-02T01:14:54;73;62;38
69144;PMS7003;56251;50.324;17.574;2024-03-02T01:17:07;75;67;36
69144;PMS7003;56251;50.324;17.574;2024-03-02T01:18:00;75;67;36
69144;PMS7003;56251;50.324;17.574;2024-03-02T01:20:13;67;57;35
69144;PMS7003;56251;50.324;17.574;2024-03-02T01:21:07;66;51;32
69144;PMS7003;56251;50.324;17.574;2024-03-02T01:23:20;75;62;35
69144;PMS7003;56251;50.324;17.574;2024-03-02T01:24:13;89;69;38
69144;PMS7003;56251;50.324;17.574;2024-03-02T01:26:26;79;67;37
69144;PMS7003;56251;50.324;17.574;2024-03-02T01:27:20;75;67;38
69144;PMS7003;56251;50.324;17.574;2024-03-02T01:29:32;64;53;33
69144;PMS7003;56251;50.324;17.574;2024-03-02T01:30:26;73;63;34
69144;PMS7003;56251;50.324;17.574;2024-03-02T01:32:39;86;73;34
69144;PMS7003;56251;50.324;17.574;2024-03-02T01:33:33;86;73;34
69144;PMS7003;56251;50.324;17.574;2024-03-02T01:35:45;71;56;32
69144;PMS7003;56251;50.324;17.574;2024-03-02T01:36:39;75;64;36
69144;PMS7003;56251;50.324;17.574;2024-03-02T01:38:52;67;53;32
69144;PMS7003;56251;50.324;17.574;2024-03-02T01:39:46;74;63;36
69144;PMS7003;56251;50.324;17.574;2024-03-02T01:41:58;72;55;33
69144;PMS7003;56251;50.324;17.574;2024-03-02T01:42:52;76;65;35
69144;PMS7003;56251;50.324;17.574;2024-03-02T01:45:05;63;53;32
69144;PMS7003;56251;50.324;17.574;2024-03-02T01:46:05;78;68;37
69144;PMS7003;56251;50.324;17.574;2024-03-02T01:48:12;73;56;36
69144;PMS7003;56251;50.324;17.574;2024-03-02T01:49:12;74;63;36
69144;PMS7003;56251;50.324;17.574;2024-03-02T01:51:24;74;59;34
69144;PMS7003;56251;50.324;17.574;2024-03-02T01:52:19;74;59;34
69144;PMS7003;56251;50.324;17.574;2024-03-02T01:54:31;73;57;35
69144;PMS7003;56251;50.324;17.574;2024-03-02T01:55:25;62;51;33
69144;PMS7003;56251;50.324;17.574;2024-03-02T01:57:38;80;60;33
69144;PMS7003;56251;50.324;17.574;2024-03-02T01:58:34;68;57;32
69144;PMS7003;56251;50.324;17.574;2024-03-02T02:00:44;70;59;35
69144;PMS7003;56251;50.324;17.574;2024-03-02T02:01:41;67;54;33
69144;PMS7003;56251;50.324;17.574;2024-03-02T02:03:51;69;58;34
69144;PMS7003;56251;50.324;17.574;2024-03-02T02:04:47;77;62;34
69144;PMS7003;56251;50.324;17.574;2024-03-02T02:06:57;70;59;33
69144;PMS7003;56251;50.324;17.574;2024-03-02T02:07:58;73;57;33
69144;PMS7003;56251;50.324;17.574;2024-03-02T02:10:03;73;59;37
69144;PMS7003;56251;50.324;17.574;2024-03-02T02:11:04;70;56;33
69144;PMS7003;56251;50.324;17.574;2024-03-02T02:13:10;72;58;32
69144;PMS7003;56251;50.324;17.574;2024-03-02T02:14:11;70;56;35
69144;PMS7003;56251;50.324;17.574;2024-03-02T02:16:16;69;59;32
69144;PMS7003;56251;50.324;17.574;2024-03-02T02:17:17;69;57;34
69144;PMS7003;56251;50.324;17.574;2024-03-02T02:19:23;70;57;32
69144;PMS7003;56251;50.324;17.574;2024-03-02T02:20:24;66;50;28
69144;PMS7003;56251;50.324;17.574;2024-03-02T02:22:29;73;58;33
69144;PMS7003;56251;50.324;17.574;2024-03-02T02:23:31;72;58;32
69144;PMS7003;56251;50.324;17.574;2024-03-02T02:25:35;72;50;33
69144;PMS7003;56251;50.324;17.574;2024-03-02T02:26:37;67;53;31
69144;PMS7003;56251;50.324;17.574;2024-03-02T02:28:41;71;56;32
69144;PMS7003;56251;50.324;17.574;2024-03-02T02:29:43;64;48;30
69144;PMS7003;56251;50.324;17.574;2024-03-02T02:31:54;73;54;33
69144;PMS7003;56251;50.324;17.574;2024-03-02T02:32:50;72;54;31
69144;PMS7003;56251;50.324;17.574;2024-03-02T02:35:01;78;64;35
69144;PMS7003;56251;50.324;17.574;2024-03-02T02:35:56;66;56;31
69144;PMS7003;56251;50.324;17.574;2024-03-02T02:38:08;71;55;35
69144;PMS7003;56251;50.324;17.574;2024-03-02T02:39:02;65;52;33
69144;PMS7003;56251;50.324;17.574;2024-03-02T02:41:14;73;57;32
69144;PMS7003;56251;50.324;17.574;2024-03-02T02:42:10;73;57;32
69144;PMS7003;56251;50.324;17.574;2024-03-02T02:44:20;66;51;29
69144;PMS7003;56251;50.324;17.574;2024-03-02T02:45:16;67;56;33
69144;PMS7003;56251;50.324;17.574;2024-03-02T02:47:27;71;56;33
69144;PMS7003;56251;50.324;17.574;2024-03-02T02:48:22;76;63;33
69144;PMS7003;56251;50.324;17.574;2024-03-02T02:50:35;67;50;29
69144;PMS7003;56251;50.324;17.574;2024-03-02T02:51:29;70;60;35
69144;PMS7003;56251;50.324;17.574;2024-03-02T02:53:41;66;51;32
69144;PMS7003;56251;50.324;17.574;2024-03-02T02:54:37;83;61;35
69144;PMS7003;56251;50.324;17.574;2024-03-02T02:56:47;73;59;32
69144;PMS7003;56251;50.324;17.574;2024-03-02T02:57:49;69;56;35
69144;PMS7003;56251;50.324;17.574;2024-03-02T02:59:54;70;58;33
69144;PMS7003;56251;50.324;17.574;2024-03-02T03:00:55;69;53;33
69144;PMS7003;56251;50.324;17.574;2024-03-02T03:03:00;72;55;33
69144;PMS7003;56251;50.324;17.574;2024-03-02T03:04:02;73;67;33
69144;PMS7003;56251;50.324;17.574;2024-03-02T03:06:07;69;53;31
69144;PMS7003;56251;50.324;17.574;2024-03-02T03:07:08;73;63;37
69144;PMS7003;56251;50.324;17.574;2024-03-02T03:09:13;70;56;32
69144;PMS7003;56251;50.324;17.574;2024-03-02T03:10:15;71;60;34
69144;PMS7003;56251;50.324;17.574;2024-03-02T03:12:19;68;54;33
69144;PMS7003;56251;50.324;17.574;2024-03-02T03:13:22;68;55;32
69144;PMS7003;56251;50.324;17.574;2024-03-02T03:15:26;64;53;30
69144;PMS7003;56251;50.324;17.574;2024-03-02T03:16:28;48;41;31
69144;PMS7003;56251;50.324;17.574;2024-03-02T03:18:32;71;59;34
69144;PMS7003;56251;50.324;17.574;2024-03-02T03:19:35;70;58;33
69144;PMS7003;56251;50.324;17.574;2024-03-02T03:21:39;69;53;34
69144;PMS7003;56251;50.324;17.574;2024-03-02T03:22:42;67;58;33
69144;PMS7003;56251;50.324;17.574;2024-03-02T03:24:45;66;52;32
69144;PMS7003;56251;50.324;17.574;2024-03-02T03:25:49;76;61;37
69144;PMS7003;56251;50.324;17.574;2024-03-02T03:27:52;65;56;34
69144;PMS7003;56251;50.324;17.574;2024-03-02T03:28:55;66;54;32
69144;PMS7003;56251;50.324;17.574;2024-03-02T03:30:58;70;56;34
69144;PMS7003;56251;50.324;17.574;2024-03-02T03:32:02;73;65;34
69144;PMS7003;56251;50.324;17.574;2024-03-02T03:34:04;80;68;37
69144;PMS7003;56251;50.324;17.574;2024-03-02T03:35:10;72;56;33
69144;PMS7003;56251;50.324;17.574;2024-03-02T03:37:11;72;57;35
69144;PMS7003;56251;50.324;17.574;2024-03-02T03:38:18;77;67;35
69144;PMS7003;56251;50.324;17.574;2024-03-02T03:40:17;76;68;37
69144;PMS7003;56251;50.324;17.574;2024-03-02T03:41:24;70;58;33
69144;PMS7003;56251;50.324;17.574;2024-03-02T03:43:24;75;63;33
69144;PMS7003;56251;50.324;17.574;2024-03-02T03:44:31;79;65;33
69144;PMS7003;56251;50.324;17.574;2024-03-02T03:46:37;78;67;37
69144;PMS7003;56251;50.324;17.574;2024-03-02T03:47:43;69;56;32
69144;PMS7003;56251;50.324;17.574;2024-03-02T03:49:43;81;64;36
69144;PMS7003;56251;50.324;17.574;2024-03-02T03:50:49;57;46;31
69144;PMS7003;56251;50.324;17.574;2024-03-02T03:52:50;75;58;34
69144;PMS7003;56251;50.324;17.574;2024-03-02T03:53:56;69;54;33
69144;PMS7003;56251;50.324;17.574;2024-03-02T03:55:56;61;49;29
69144;PMS7003;56251;50.324;17.574;2024-03-02T03:57:02;75;59;35
69144;PMS7003;56251;50.324;17.574;2024-03-02T03:59:03;70;56;33
69144;PMS7003;56251;50.324;17.574;2024-03-02T04:00:09;74;62;34
69144;PMS7003;56251;50.324;17.574;2024-03-02T04:02:10;74;60;35
69144;PMS7003;56251;50.324;17.574;2024-03-02T04:03:16;68;54;32
69144;PMS7003;56251;50.324;17.574;2024-03-02T04:05:22;63;53;32
69144;PMS7003;56251;50.324;17.574;2024-03-02T04:06:22;63;53;32
69144;PMS7003;56251;50.324;17.574;2024-03-02T04:08:29;63;50;33
69144;PMS7003;56251;50.324;17.574;2024-03-02T04:09:29;64;52;34
69144;PMS7003;56251;50.324;17.574;2024-03-02T04:11:35;71;58;32
69144;PMS7003;56251;50.324;17.574;2024-03-02T04:12:35;71;60;33
69144;PMS7003;56251;50.324;17.574;2024-03-02T04:14:42;67;48;32
69144;PMS7003;56251;50.324;17.574;2024-03-02T04:15:42;58;46;22
69144;PMS7003;56251;50.324;17.574;2024-03-02T04:17:48;65;50;32
69144;PMS7003;56251;50.324;17.574;2024-03-02T04:18:48;68;51;29
69144;PMS7003;56251;50.324;17.574;2024-03-02T04:20:55;65;49;29
69144;PMS7003;56251;50.324;17.574;2024-03-02T04:21:55;65;49;29
69144;PMS7003;56251;50.324;17.574;2024-03-02T04:24:02;66;51;33
69144;PMS7003;56251;50.324;17.574;2024-03-02T04:25:01;67;54;34
69144;PMS7003;56251;50.324;17.574;2024-03-02T04:27:08;69;55;33
69144;PMS7003;56251;50.324;17.574;2024-03-02T04:28:09;71;58;35
69144;PMS7003;56251;50.324;17.574;2024-03-02T04:30:15;55;47;30
69144;PMS7003;56251;50.324;17.574;2024-03-02T04:31:18;59;45;28
69144;PMS7003;56251;50.324;17.574;2024-03-02T04:33:21;65;50;32
69144;PMS7003;56251;50.324;17.574;2024-03-02T04:34:24;73;63;34
69144;PMS7003;56251;50.324;17.574;2024-03-02T04:36:27;65;49;31
69144;PMS7003;56251;50.324;17.574;2024-03-02T04:37:34;73;55;35
69144;PMS7003;56251;50.324;17.574;2024-03-02T04:39:35;67;57;35
69144;PMS7003;56251;50.324;17.574;2024-03-02T04:40:40;62;50;32
69144;PMS7003;56251;50.324;17.574;2024-03-02T04:42:41;67;52;31
69144;PMS7003;56251;50.324;17.574;2024-03-02T04:43:47;59;49;31
69144;PMS7003;56251;50.324;17.574;2024-03-02T04:45:48;67;50;33
69144;PMS7003;56251;50.324;17.574;2024-03-02T04:46:54;68;57;34
69144;PMS7003;56251;50.324;17.574;2024-03-02T04:48:54;59;47;30
69144;PMS7003;56251;50.324;17.574;2024-03-02T04:50:00;78;62;37
69144;PMS7003;56251;50.324;17.574;2024-03-02T04:52:02;70;56;36
69144;PMS7003;56251;50.324;17.574;2024-03-02T04:53:07;59;48;32
69144;PMS7003;56251;50.324;17.574;2024-03-02T04:55:14;57;44;29
69144;PMS7003;56251;50.324;17.574;2024-03-02T04:56:13;57;44;29
69144;PMS7003;56251;50.324;17.574;2024-03-02T04:58:25;71;55;34
69144;PMS7003;56251;50.324;17.574;2024-03-02T04:59:39;66;52;32
69144;PMS7003;56251;50.324;17.574;2024-03-02T05:01:32;71;58;34
69144;PMS7003;56251;50.324;17.574;2024-03-02T05:02:45;77;67;36
69144;PMS7003;56251;50.324;17.574;2024-03-02T05:04:39;56;46;29
69144;PMS7003;56251;50.324;17.574;2024-03-02T05:05:52;62;51;30
69144;PMS7003;56251;50.324;17.574;2024-03-02T05:07:47;63;52;32
69144;PMS7003;56251;50.324;17.574;2024-03-02T05:08:58;70;57;34
69144;PMS7003;56251;50.324;17.574;2024-03-02T05:10:53;65;48;32
69144;PMS7003;56251;50.324;17.574;2024-03-02T05:12:04;61;47;30
69144;PMS7003;56251;50.324;17.574;2024-03-02T05:14:00;64;50;33
69144;PMS7003;56251;50.324;17.574;2024-03-02T05:15:31;68;54;33
69144;PMS7003;56251;50.324;17.574;2024-03-02T05:17:07;67;53;31
69144;PMS7003;56251;50.324;17.574;2024-03-02T05:18:39;70;50;33
69144;PMS7003;56251;50.324;17.574;2024-03-02T05:20:14;67;53;32
69144;PMS7003;56251;50.324;17.574;2024-03-02T05:21:45;64;49;30
69144;PMS7003;56251;50.324;17.574;2024-03-02T05:23:20;70;56;33
69144;PMS7003;56251;50.324;17.574;2024-03-02T05:24:52;57;42;27
69144;PMS7003;56251;50.324;17.574;2024-03-02T05:26:27;61;49;32
69144;PMS7003;56251;50.324;17.574;2024-03-02T05:27:58;58;47;29
69144;PMS7003;56251;50.324;17.574;2024-03-02T05:29:33;61;50;31
69144;PMS7003;56251;50.324;17.574;2024-03-02T05:31:04;58;47;29
69144;PMS7003;56251;50.324;17.574;2024-03-02T05:32:39;60;49;30
69144;PMS7003;56251;50.324;17.574;2024-03-02T05:34:11;71;54;31
69144;PMS7003;56251;50.324;17.574;2024-03-02T05:35:45;66;52;31
69144;PMS7003;56251;50.324;17.574;2024-03-02T05:37:17;66;54;32
69144;PMS7003;56251;50.324;17.574;2024-03-02T05:38:52;61;50;32
69144;PMS7003;56251;50.324;17.574;2024-03-02T05:40:25;61;48;30
69144;PMS7003;56251;50.324;17.574;2024-03-02T05:41:58;57;46;30
69144;PMS7003;56251;50.324;17.574;2024-03-02T05:43:32;62;48;30
69144;PMS7003;56251;50.324;17.574;2024-03-02T05:45:05;59;43;27
69144;PMS7003;56251;50.324;17.574;2024-03-02T05:46:38;48;38;20
69144;PMS7003;56251;50.324;17.574;2024-03-02T05:48:11;62;48;28
69144;PMS7003;56251;50.324;17.574;2024-03-02T05:49:44;54;45;27
69144;PMS7003;56251;50.324;17.574;2024-03-02T05:51:17;59;46;30
69144;PMS7003;56251;50.324;17.574;2024-03-02T05:52:51;52;41;26
69144;PMS7003;56251;50.324;17.574;2024-03-02T05:54:24;60;47;30
69144;PMS7003;56251;50.324;17.574;2024-03-02T05:55:57;62;48;28
69144;PMS7003;56251;50.324;17.574;2024-03-02T05:57:30;62;48;31
69144;PMS7003;56251;50.324;17.574;2024-03-02T05:59:04;52;42;29
69144;PMS7003;56251;50.324;17.574;2024-03-02T06:00:47;60;46;31
69144;PMS7003;56251;50.324;17.574;2024-03-02T06:02:19;59;43;29
69144;PMS7003;56251;50.324;17.574;2024-03-02T06:03:56;57;47;30
69144;PMS7003;56251;50.324;17.574;2024-03-02T06:05:25;62;47;28
69144;PMS7003;56251;50.324;17.574;2024-03-02T06:07:08;65;52;32
69144;PMS7003;56251;50.324;17.574;2024-03-02T06:08:32;67;52;33
69144;PMS7003;56251;50.324;17.574;2024-03-02T06:10:15;68;50;29
69144;PMS7003;56251;50.324;17.574;2024-03-02T06:11:40;63;50;30
69144;PMS7003;56251;50.324;17.574;2024-03-02T06:13:21;71;53;32
69144;PMS7003;56251;50.324;17.574;2024-03-02T06:14:52;56;45;30
69144;PMS7003;56251;50.324;17.574;2024-03-02T06:16:28;70;49;31
69144;PMS7003;56251;50.324;17.574;2024-03-02T06:17:59;60;46;28
69144;PMS7003;56251;50.324;17.574;2024-03-02T06:19:35;60;49;28
69144;PMS7003;56251;50.324;17.574;2024-03-02T06:21:06;69;50;31
69144;PMS7003;56251;50.324;17.574;2024-03-02T06:22:42;63;48;30
69144;PMS7003;56251;50.324;17.574;2024-03-02T06:24:12;60;48;31
69144;PMS7003;56251;50.324;17.574;2024-03-02T06:25:48;63;46;30
69144;PMS7003;56251;50.324;17.574;2024-03-02T06:27:18;59;48;28
69144;PMS7003;56251;50.324;17.574;2024-03-02T06:28:55;67;51;30
69144;PMS7003;56251;50.324;17.574;2024-03-02T06:30:25;56;41;26
69144;PMS7003;56251;50.324;17.574;2024-03-02T06:32:01;61;50;30
69144;PMS7003;56251;50.324;17.574;2024-03-02T06:33:32;54;46;29
69144;PMS7003;56251;50.324;17.574;2024-03-02T06:35:08;56;44;26
69144;PMS7003;56251;50.324;17.574;2024-03-02T06:36:39;48;41;26
69144;PMS7003;56251;50.324;17.574;2024-03-02T06:38:15;63;50;29
69144;PMS7003;56251;50.324;17.574;2024-03-02T06:39:48;60;45;26
69144;PMS7003;56251;50.324;17.574;2024-03-02T06:41:22;70;59;33
69144;PMS7003;56251;50.324;17.574;2024-03-02T06:42:54;65;55;31
69144;PMS7003;56251;50.324;17.574;2024-03-02T06:44:28;71;59;38
69144;PMS7003;56251;50.324;17.574;2024-03-02T06:46:00;69;50;32
69144;PMS7003;56251;50.324;17.574;2024-03-02T06:47:35;72;63;37
69144;PMS7003;56251;50.324;17.574;2024-03-02T06:49:07;63;49;31
69144;PMS7003;56251;50.324;17.574;2024-03-02T06:50:41;66;52;33
69144;PMS7003;56251;50.324;17.574;2024-03-02T06:52:15;61;50;32
69144;PMS7003;56251;50.324;17.574;2024-03-02T06:53:48;66;48;31
69144;PMS7003;56251;50.324;17.574;2024-03-02T06:55:22;72;56;35
69144;PMS7003;56251;50.324;17.574;2024-03-02T06:56:55;56;45;25
69144;PMS7003;56251;50.324;17.574;2024-03-02T06:58:30;67;55;32
69144;PMS7003;56251;50.324;17.574;2024-03-02T07:00:01;75;57;37
69144;PMS7003;56251;50.324;17.574;2024-03-02T07:01:37;75;63;36
69144;PMS7003;56251;50.324;17.574;2024-03-02T07:03:09;76;63;36
69144;PMS7003;56251;50.324;17.574;2024-03-02T07:04:43;75;65;35
69144;PMS7003;56251;50.324;17.574;2024-03-02T07:06:16;74;65;39
69144;PMS7003;56251;50.324;17.574;2024-03-02T07:07:50;73;66;34
69144;PMS7003;56251;50.324;17.574;2024-03-02T07:09:23;84;76;39
69144;PMS7003;56251;50.324;17.574;2024-03-02T07:10:58;70;57;35
69144;PMS7003;56251;50.324;17.574;2024-03-02T07:12:30;80;71;36
69144;PMS7003;56251;50.324;17.574;2024-03-02T07:14:05;76;66;36
69144;PMS7003;56251;50.324;17.574;2024-03-02T07:15:37;75;62;35
69144;PMS7003;56251;50.324;17.574;2024-03-02T07:17:12;75;67;43
69144;PMS7003;56251;50.324;17.574;2024-03-02T07:18:57;96;87;42
69144;PMS7003;56251;50.324;17.574;2024-03-02T07:20:19;97;93;50
69144;PMS7003;56251;50.324;17.574;2024-03-02T07:22:08;90;80;43
69144;PMS7003;56251;50.324;17.574;2024-03-02T07:23:25;89;82;45
69144;PMS7003;56251;50.324;17.574;2024-03-02T07:25:13;92;84;38
69144;PMS7003;56251;50.324;17.574;2024-03-02T07:26:32;107;92;49
69144;PMS7003;56251;50.324;17.574;2024-03-02T07:28:19;87;84;49
69144;PMS7003;56251;50.324;17.574;2024-03-02T07:29:40;82;73;43
69144;PMS7003;56251;50.324;17.574;2024-03-02T07:31:26;82;64;40
69144;PMS7003;56251;50.324;17.574;2024-03-02T07:32:49;83;76;42
69144;PMS7003;56251;50.324;17.574;2024-03-02T07:34:32;75;60;39
69144;PMS7003;56251;50.324;17.574;2024-03-02T07:35:55;73;63;38
69144;PMS7003;56251;50.324;17.574;2024-03-02T07:37:39;76;68;41
69144;PMS7003;56251;50.324;17.574;2024-03-02T07:39:02;68;58;35
69144;PMS7003;56251;50.324;17.574;2024-03-02T07:40:47;75;70;38
69144;PMS7003;56251;50.324;17.574;2024-03-02T07:42:09;69;55;33
69144;PMS7003;56251;50.324;17.574;2024-03-02T07:44:01;67;56;35
69144;PMS7003;56251;50.324;17.574;2024-03-02T07:45:15;70;59;36
69144;PMS7003;56251;50.324;17.574;2024-03-02T07:47:10;69;53;32
69144;PMS7003;56251;50.324;17.574;2024-03-02T07:48:21;61;50;34
69144;PMS7003;56251;50.324;17.574;2024-03-02T07:50:16;70;52;33
69144;PMS7003;56251;50.324;17.574;2024-03-02T07:51:28;66;54;32
69144;PMS7003;56251;50.324;17.574;2024-03-02T07:53:23;59;49;34
69144;PMS7003;56251;50.324;17.574;2024-03-02T07:54:35;67;54;33
69144;PMS7003;56251;50.324;17.574;2024-03-02T07:56:29;68;50;29
69144;PMS7003;56251;50.324;17.574;2024-03-02T07:57:41;57;46;29
69144;PMS7003;56251;50.324;17.574;2024-03-02T07:59:36;54;45;30
69144;PMS7003;56251;50.324;17.574;2024-03-02T08:00:48;55;46;29
69144;PMS7003;56251;50.324;17.574;2024-03-02T08:02:43;58;47;29
69144;PMS7003;56251;50.324;17.574;2024-03-02T08:03:55;56;47;28
69144;PMS7003;56251;50.324;17.574;2024-03-02T08:05:50;62;50;30
69144;PMS7003;56251;50.324;17.574;2024-03-02T08:07:09;63;51;30
69144;PMS7003;56251;50.324;17.574;2024-03-02T08:08:57;61;47;31
69144;PMS7003;56251;50.324;17.574;2024-03-02T08:10:16;57;47;31
69144;PMS7003;56251;50.324;17.574;2024-03-02T08:12:05;65;50;32
69144;PMS7003;56251;50.324;17.574;2024-03-02T08:13:22;73;58;29
69144;PMS7003;56251;50.324;17.574;2024-03-02T08:15:11;72;57;35
69144;PMS7003;56251;50.324;17.574;2024-03-02T08:16:28;67;53;33
69144;PMS7003;56251;50.324;17.574;2024-03-02T08:18:21;63;51;33
69144;PMS7003;56251;50.324;17.574;2024-03-02T08:19:35;64;50;34
69144;PMS7003;56251;50.324;17.574;2024-03-02T08:21:30;60;48;33
69144;PMS7003;56251;50.324;17.574;2024-03-02T08:22:42;61;51;31
69144;PMS7003;56251;50.324;17.574;2024-03-02T08:24:38;60;47;28
69144;PMS7003;56251;50.324;17.574;2024-03-02T08:25:49;65;50;29
69144;PMS7003;56251;50.324;17.574;2024-03-02T08:27:45;58;46;28
69144;PMS7003;56251;50.324;17.574;2024-03-02T08:28:55;62;46;30
69144;PMS7003;56251;50.324;17.574;2024-03-02T08:30:51;56;44;27
69144;PMS7003;56251;50.324;17.574;2024-03-02T08:32:02;51;43;25
69144;PMS7003;56251;50.324;17.574;2024-03-02T08:33:58;53;45;27
69144;PMS7003;56251;50.324;17.574;2024-03-02T08:35:09;46;40;24
69144;PMS7003;56251;50.324;17.574;2024-03-02T08:37:07;50;40;18
69144;PMS7003;56251;50.324;17.574;2024-03-02T08:38:16;48;41;27
69144;PMS7003;56251;50.324;17.574;2024-03-02T08:40:14;65;50;30
69144;PMS7003;56251;50.324;17.574;2024-03-02T08:41:23;53;44;28
69144;PMS7003;56251;50.324;17.574;2024-03-02T08:43:21;56;44;28
69144;PMS7003;56251;50.324;17.574;2024-03-02T08:44:30;54;45;28
69144;PMS7003;56251;50.324;17.574;2024-03-02T08:46:32;53;42;26
69144;PMS7003;56251;50.324;17.574;2024-03-02T08:47:40;59;48;30
69144;PMS7003;56251;50.324;17.574;2024-03-02T08:49:38;63;47;31
69144;PMS7003;56251;50.324;17.574;2024-03-02T08:50:47;59;48;32
69144;PMS7003;56251;50.324;17.574;2024-03-02T08:52:45;55;44;29
69144;PMS7003;56251;50.324;17.574;2024-03-02T08:53:53;58;45;29
69144;PMS7003;56251;50.324;17.574;2024-03-02T08:55:56;42;37;26
69144;PMS7003;56251;50.324;17.574;2024-03-02T08:57:02;58;48;31
69144;PMS7003;56251;50.324;17.574;2024-03-02T08:59:03;62;49;30
69144;PMS7003;56251;50.324;17.574;2024-03-02T09:00:09;63;50;31
69144;PMS7003;56251;50.324;17.574;2024-03-02T09:02:09;53;44;27
69144;PMS7003;56251;50.324;17.574;2024-03-02T09:03:16;54;46;28
69144;PMS7003;56251;50.324;17.574;2024-03-02T09:05:16;50;42;29
69144;PMS7003;56251;50.324;17.574;2024-03-02T09:06:22;53;44;29
69144;PMS7003;56251;50.324;17.574;2024-03-02T09:08:22;56;44;28
69144;PMS7003;56251;50.324;17.574;2024-03-02T09:09:29;47;40;23
69144;PMS7003;56251;50.324;17.574;2024-03-02T09:11:29;60;40;26
69144;PMS7003;56251;50.324;17.574;2024-03-02T09:12:37;54;45;28
69144;PMS7003;56251;50.324;17.574;2024-03-02T09:14:35;55;44;25
69144;PMS7003;56251;50.324;17.574;2024-03-02T09:15:44;51;40;27
69144;PMS7003;56251;50.324;17.574;2024-03-02T09:17:42;53;44;26
69144;PMS7003;56251;50.324;17.574;2024-03-02T09:18:50;53;43;26
69144;PMS7003;56251;50.324;17.574;2024-03-02T09:20:49;55;46;27
69144;PMS7003;56251;50.324;17.574;2024-03-02T09:21:56;55;45;27
69144;PMS7003;56251;50.324;17.574;2024-03-02T09:23:56;50;42;28
69144;PMS7003;56251;50.324;17.574;2024-03-02T09:25:04;49;41;28
69144;PMS7003;56251;50.324;17.574;2024-03-02T09:27:02;48;41;27
69144;PMS7003;56251;50.324;17.574;2024-03-02T09:28:12;52;44;29
69144;PMS7003;56251;50.324;17.574;2024-03-02T09:30:10;44;38;27
69144;PMS7003;56251;50.324;17.574;2024-03-02T09:31:20;52;40;24
69144;PMS7003;56251;50.324;17.574;2024-03-02T09:33:17;48;42;25
69144;PMS7003;56251;50.324;17.574;2024-03-02T09:34:26;55;45;28
69144;PMS7003;56251;50.324;17.574;2024-03-02T09:36:24;57;45;29
69144;PMS7003;56251;50.324;17.574;2024-03-02T09:37:33;54;45;27
69144;PMS7003;56251;50.324;17.574;2024-03-02T09:39:30;55;46;28
69144;PMS7003;56251;50.324;17.574;2024-03-02T09:40:40;57;47;29
69144;PMS7003;56251;50.324;17.574;2024-03-02T09:42:37;63;50;29
69144;PMS7003;56251;50.324;17.574;2024-03-02T09:43:47;56;46;31
69144;PMS7003;56251;50.324;17.574;2024-03-02T09:45:44;57;47;31
69144;PMS7003;56251;50.324;17.574;2024-03-02T09:46:55;54;45;29
69144;PMS7003;56251;50.324;17.574;2024-03-02T09:48:51;60;46;28
69144;PMS7003;56251;50.324;17.574;2024-03-02T09:50:01;54;43;30
69144;PMS7003;56251;50.324;17.574;2024-03-02T09:51:57;51;40;27
69144;PMS7003;56251;50.324;17.574;2024-03-02T09:53:09;51;42;26
69144;PMS7003;56251;50.324;17.574;2024-03-02T09:55:05;47;40;25
69144;PMS7003;56251;50.324;17.574;2024-03-02T09:56:17;52;41;25